首页
METAR-TAF:

METAR-TAF

机场 :

埃夫勒, 法国

纬度: 49-01N, 经度: 001-13E, 海拔: 141米

当前天气观测

该预报发布于44分钟前的12:00 UTC
风速11节,风向南转西南
温度 18°C
湿度 83%
气压 1005 hPa
能见度10公里或以上
小雨

METAR: LFOE 231200Z AUTO 20011KT 9999 -RA ///TCU 18/15 Q1005 TEMPO 23015G30KT 3000 -SHRA

时间: 14:44 (12:44 UTC)

预报

该预报发布于4小时和44分钟前的08:00 UTC
预报有效从23日的 09点(UTC)到 24日的 09点(UTC)
风速10节,风向西南,有时为20节阵风
能见度10公里或以上
散云层高于3000英尺
成为
从 23日的 10点(UTC)到 23日的 12点(UTC)
风速15节,风向西南,有时为25节阵风
短暂存在
从 23日的 11点(UTC)到 23日的 21点(UTC)
风速15节,风向西南,有时为30节阵风
能見度: 3000
多云层高于3000英尺, 塔状积云.
小阵雨
几率 40% :
短暂存在
从 23日的 15点(UTC)到 23日的 19点(UTC)
能見度: 2000
多云层高于1200英尺
多云层高于3500英尺, 积雨云.
阵雨, 小冰雹或雪球
几率 30% :
短暂存在
从 23日的 15点(UTC)到 23日的 19点(UTC)
雷暴, 小雨
短暂存在
从 23日的 19点(UTC)到 23日的 21点(UTC)
风速15节,风向西,有时为25节阵风

TAF: LFOE 230800Z 2309/2409 22010G20KT 9999 SCT030 BECMG 2310/2312 22015G25KT TEMPO 2311/2321 23015G30KT 3000 -SHRA BKN030TCU PROB40 TEMPO 2315/2319 2000 SHRAGS BKN012 BKN035CB PROB30 TEMPO 2315/2319 -TSRA TEMPO 2319/2321 28015G25KT

超过4000个机场的气象观测和天气预报(METAR&TAF报告)。

可查询的气象台以黄色和红色小点在地图上表示。

将鼠标移到小点上方,可查看气象台名称。

然后点击查看天气观测和预报。

如需切换地图:点击带黑十字的绿色按钮放大地图;点击带横线的绿色按钮缩小地图;或者点击绿色箭头查看邻近地区的地图。


METAR-TAF: